createdAt,value
2019-04-05T00:01:35.937Z,4.40
2019-04-05T00:04:04.589Z,4.40
2019-04-05T00:06:33.068Z,4.40
2019-04-05T00:09:01.513Z,4.30
2019-04-05T00:11:29.995Z,4.40
2019-04-05T00:13:58.469Z,4.40
2019-04-05T00:16:26.946Z,4.40
2019-04-05T00:18:55.417Z,4.50
2019-04-05T00:21:23.909Z,4.50
2019-04-05T00:23:52.368Z,4.50
2019-04-05T00:26:20.839Z,4.40
2019-04-05T00:28:51.653Z,4.40
2019-04-05T00:31:19.595Z,4.50
2019-04-05T00:33:48.154Z,4.50
2019-04-05T00:36:16.683Z,4.50
2019-04-05T00:38:45.156Z,4.40
2019-04-05T00:41:13.635Z,4.40
2019-04-05T00:43:42.108Z,4.30
2019-04-05T00:46:10.601Z,4.30
2019-04-05T00:48:39.123Z,4.30
2019-04-05T00:51:07.679Z,4.40
2019-04-05T00:53:36.297Z,4.50
2019-04-05T00:56:05.098Z,4.40
2019-04-05T00:58:33.596Z,4.40
2019-04-05T01:01:02.199Z,4.40
2019-04-05T01:03:30.668Z,4.40
2019-04-05T01:05:59.297Z,4.40
2019-04-05T01:08:27.761Z,4.30
2019-04-05T01:10:56.309Z,4.20
2019-04-05T01:13:25.012Z,4.20
2019-04-05T01:15:53.471Z,4.30
2019-04-05T01:18:22.036Z,4.20
2019-04-05T01:20:53.708Z,4.20
2019-04-05T01:23:23.007Z,4.30
2019-04-05T01:25:53.721Z,4.30
2019-04-05T01:28:22.828Z,4.40
2019-04-05T01:30:51.631Z,4.30
2019-04-05T01:33:20.154Z,4.20
2019-04-05T01:35:48.907Z,4.10
2019-04-05T01:38:17.524Z,4.20
2019-04-05T01:40:47.440Z,4.10
2019-04-05T01:43:16.258Z,4.10
2019-04-05T01:45:53.507Z,4.20
2019-04-05T01:48:16.675Z,4.30
2019-04-05T01:50:45.277Z,4.30
2019-04-05T01:53:13.875Z,4.40
2019-04-05T01:55:42.351Z,4.30
2019-04-05T01:58:10.906Z,4.30
2019-04-05T02:00:39.497Z,4.20
2019-04-05T02:03:08.035Z,4.20
2019-04-05T02:05:36.579Z,4.20
2019-04-05T02:08:05.429Z,4.30
2019-04-05T02:10:34.046Z,4.30
2019-04-05T02:13:02.588Z,4.30
2019-04-05T02:15:33.451Z,4.20
2019-04-05T02:18:02.012Z,4.20
2019-04-05T02:20:30.590Z,4.30
2019-04-05T02:22:59.150Z,4.20
2019-04-05T02:25:27.778Z,4.20
2019-04-05T02:27:56.244Z,4.20
2019-04-05T02:30:25.377Z,4.10
2019-04-05T02:32:53.980Z,4.10
2019-04-05T02:35:22.652Z,4.20
2019-04-05T02:37:51.122Z,4.20
2019-04-05T02:40:21.323Z,4.30
2019-04-05T02:42:52.108Z,4.20
2019-04-05T02:45:22.008Z,4.30
2019-04-05T02:47:53.581Z,4.40
2019-04-05T02:50:25.090Z,4.40
2019-04-05T02:52:56.932Z,4.30
2019-04-05T02:55:27.235Z,4.30
2019-04-05T02:57:56.437Z,4.30
2019-04-05T03:00:25.202Z,4.30
2019-04-05T03:02:54.632Z,4.30
2019-04-05T03:05:23.327Z,4.40
2019-04-05T03:07:52.139Z,4.40
2019-04-05T03:10:23.666Z,4.40
2019-04-05T03:12:52.229Z,4.40
2019-04-05T03:15:20.751Z,4.40
2019-04-05T03:17:49.303Z,4.40
2019-04-05T03:20:18.677Z,4.40
2019-04-05T03:22:47.407Z,4.50
2019-04-05T03:25:15.962Z,4.50
2019-04-05T03:27:44.966Z,4.50
2019-04-05T03:30:13.779Z,4.50
2019-04-05T03:32:42.322Z,4.40
2019-04-05T03:35:10.969Z,4.30
2019-04-05T03:37:39.554Z,4.20
2019-04-05T03:40:08.213Z,4.30
2019-04-05T03:42:37.120Z,4.30
2019-04-05T03:45:07.246Z,4.30
2019-04-05T03:47:35.854Z,4.20
2019-04-05T03:50:06.190Z,4.20
2019-04-05T03:52:34.786Z,4.20
2019-04-05T03:55:03.388Z,4.30
2019-04-05T03:57:32.009Z,4.30
2019-04-05T04:00:00.624Z,4.30
2019-04-05T04:02:29.313Z,4.30
2019-04-05T04:04:57.931Z,4.20
2019-04-05T04:07:26.757Z,4.20
2019-04-05T04:09:55.624Z,4.10
2019-04-05T04:12:24.248Z,4.30
2019-04-05T04:14:54.137Z,4.20
2019-04-05T04:17:22.726Z,4.20
2019-04-05T04:19:51.640Z,4.10
2019-04-05T04:22:23.191Z,4.20
2019-04-05T04:24:52.441Z,4.10
2019-04-05T04:27:21.624Z,4.00
2019-04-05T04:29:50.332Z,3.90
2019-04-05T04:32:18.955Z,4.00
2019-04-05T04:34:47.724Z,4.10
2019-04-05T04:37:16.635Z,4.10
2019-04-05T04:39:45.515Z,4.10
2019-04-05T04:42:15.330Z,4.00
2019-04-05T04:44:43.906Z,4.00
2019-04-05T04:47:25.743Z,4.10
2019-04-05T04:49:43.194Z,4.10
2019-04-05T04:52:12.516Z,4.10
2019-04-05T04:54:41.152Z,4.10
2019-04-05T04:57:09.699Z,4.30
2019-04-05T04:59:38.298Z,4.20
2019-04-05T05:02:07.189Z,4.10
2019-04-05T05:04:36.207Z,4.10
2019-04-05T05:07:05.369Z,4.00
2019-04-05T05:09:34.296Z,4.00
2019-04-05T05:12:03.411Z,4.10
2019-04-05T05:14:32.377Z,4.00
2019-04-05T05:17:01.069Z,4.10
2019-04-05T05:19:29.701Z,4.10
2019-04-05T05:21:58.511Z,4.10
2019-04-05T05:24:27.354Z,4.10
2019-04-05T05:26:56.203Z,4.10
2019-04-05T05:29:25.027Z,4.00
2019-04-05T05:31:53.928Z,4.00
2019-04-05T05:34:22.682Z,4.00
2019-04-05T05:36:51.223Z,4.10
2019-04-05T05:39:20.346Z,4.00
2019-04-05T05:41:48.971Z,4.00
2019-04-05T05:44:17.623Z,4.00
2019-04-05T05:46:46.517Z,4.00
2019-04-05T05:49:14.992Z,4.00
2019-04-05T05:51:43.713Z,4.00
2019-04-05T05:54:12.193Z,4.00
2019-04-05T05:56:40.673Z,3.90
2019-04-05T05:59:09.189Z,3.90
2019-04-05T06:01:37.670Z,3.90
2019-04-05T06:04:06.220Z,3.90
2019-04-05T06:06:34.684Z,3.90
2019-04-05T06:09:04.998Z,4.00
2019-04-05T06:11:33.479Z,3.90
2019-04-05T06:14:01.967Z,4.00
2019-04-05T06:16:30.755Z,4.00
2019-04-05T06:18:59.221Z,3.90
2019-04-05T06:21:27.697Z,4.00
2019-04-05T06:23:56.234Z,4.00
2019-04-05T06:26:24.984Z,4.00
2019-04-05T06:28:53.871Z,3.90
2019-04-05T06:31:22.513Z,3.90
2019-04-05T06:33:50.978Z,3.90
2019-04-05T06:36:19.468Z,4.00
2019-04-05T06:38:48.003Z,4.00
2019-04-05T06:41:16.555Z,4.00
2019-04-05T06:43:45.381Z,4.00
2019-04-05T06:46:14.181Z,4.00
2019-04-05T06:48:42.622Z,4.00
2019-04-05T06:51:11.074Z,4.00
2019-04-05T06:53:39.564Z,3.90
2019-04-05T06:56:08.001Z,3.90
2019-04-05T06:58:36.483Z,3.80
2019-04-05T07:01:05.170Z,3.60
2019-04-05T07:03:33.725Z,3.50
2019-04-05T07:06:02.254Z,3.60
2019-04-05T07:08:30.819Z,3.60
2019-04-05T07:10:59.352Z,3.60
2019-04-05T07:13:27.898Z,3.70
2019-04-05T07:15:56.349Z,3.70
2019-04-05T07:18:34.122Z,3.80
2019-04-05T07:20:57.843Z,3.80
2019-04-05T07:23:26.101Z,3.90
2019-04-05T07:25:54.612Z,3.90
2019-04-05T07:28:25.091Z,3.90
2019-04-05T07:30:53.282Z,3.90
2019-04-05T07:33:21.744Z,4.00
2019-04-05T07:35:50.227Z,3.90
2019-04-05T07:38:18.692Z,3.90
2019-04-05T07:40:47.157Z,3.90
2019-04-05T07:43:15.691Z,3.90
2019-04-05T07:45:45.947Z,3.90
2019-04-05T07:48:14.357Z,3.90
2019-04-05T07:50:42.830Z,4.00
2019-04-05T07:53:11.368Z,4.00
2019-04-05T07:55:39.855Z,4.00
2019-04-05T07:58:08.297Z,4.00
2019-04-05T08:00:40.187Z,4.00
2019-04-05T08:03:08.742Z,4.10
2019-04-05T08:05:37.288Z,4.30
2019-04-05T08:08:08.401Z,4.60
2019-04-05T08:10:37.372Z,4.60
2019-04-05T08:13:06.680Z,4.80
2019-04-05T08:15:36.005Z,4.80
2019-04-05T08:18:04.607Z,4.80
2019-04-05T08:20:33.087Z,4.80
2019-04-05T08:23:01.621Z,4.80
2019-04-05T08:25:30.115Z,4.80
2019-04-05T08:27:58.581Z,4.80
2019-04-05T08:30:27.033Z,4.60
2019-04-05T08:32:55.515Z,4.50
2019-04-05T08:35:23.966Z,4.40
2019-04-05T08:37:52.469Z,4.40
2019-04-05T08:40:20.998Z,4.70
2019-04-05T08:42:49.489Z,4.90
2019-04-05T08:45:18.008Z,4.70
2019-04-05T08:47:46.571Z,4.50
2019-04-05T08:50:15.261Z,4.70
2019-04-05T08:52:43.728Z,4.80
2019-04-05T08:55:12.279Z,4.70
2019-04-05T08:57:40.769Z,4.50
2019-04-05T09:00:09.653Z,4.50
2019-04-05T09:02:38.176Z,4.40
2019-04-05T09:05:07.275Z,4.60
2019-04-05T09:07:35.735Z,4.50
2019-04-05T09:10:06.384Z,4.50
2019-04-05T09:12:34.844Z,4.50
2019-04-05T09:15:04.275Z,4.50
2019-04-05T09:17:32.766Z,4.50
2019-04-05T09:20:01.252Z,4.80
2019-04-05T09:22:29.725Z,4.70
2019-04-05T09:24:58.176Z,4.50
2019-04-05T09:27:26.650Z,4.40
2019-04-05T09:29:55.169Z,4.40
2019-04-05T09:32:23.649Z,4.30
2019-04-05T09:34:52.111Z,4.30
2019-04-05T09:37:20.589Z,4.40
2019-04-05T09:39:49.081Z,4.50
2019-04-05T09:42:17.810Z,4.60
2019-04-05T09:44:46.300Z,4.50
2019-04-05T09:47:14.779Z,4.40
2019-04-05T09:49:45.104Z,4.30
2019-04-05T09:52:13.581Z,4.30
2019-04-05T09:54:42.059Z,4.30
2019-04-05T09:57:10.655Z,4.30
2019-04-05T09:59:39.142Z,4.40
2019-04-05T10:02:07.663Z,4.40
2019-04-05T10:04:36.133Z,4.40
2019-04-05T10:07:04.767Z,4.50
2019-04-05T10:09:33.237Z,4.50
2019-04-05T10:12:01.722Z,4.60
2019-04-05T10:14:30.200Z,4.70
2019-04-05T10:16:58.645Z,4.80
2019-04-05T10:19:27.103Z,4.90
2019-04-05T10:21:55.943Z,4.90
2019-04-05T10:24:24.452Z,4.70
2019-04-05T10:26:52.959Z,5.00
2019-04-05T10:29:21.416Z,5.10
2019-04-05T10:31:50.122Z,5.20
2019-04-05T10:34:18.613Z,5.20
2019-04-05T10:36:47.059Z,5.40
2019-04-05T10:39:15.601Z,5.40
2019-04-05T10:41:44.095Z,5.40
2019-04-05T10:44:14.256Z,5.40
2019-04-05T10:46:42.713Z,5.30
2019-04-05T10:49:11.178Z,5.10
2019-04-05T10:51:39.971Z,5.20
2019-04-05T10:54:09.588Z,5.10
2019-04-05T10:56:38.303Z,5.20
2019-04-05T10:59:06.846Z,5.10
2019-04-05T11:01:35.303Z,5.20
2019-04-05T11:04:03.864Z,5.10
2019-04-05T11:06:32.319Z,5.10
2019-04-05T11:09:00.784Z,5.40
2019-04-05T11:11:29.331Z,5.30
2019-04-05T11:13:58.148Z,5.30
2019-04-05T11:16:26.603Z,5.30
2019-04-05T11:18:55.073Z,5.40
2019-04-05T11:21:23.547Z,5.60
2019-04-05T11:23:53.597Z,5.60
2019-04-05T11:26:22.215Z,5.60
2019-04-05T11:28:50.691Z,5.60
2019-04-05T11:31:19.309Z,5.40
2019-04-05T11:33:47.799Z,5.50
2019-04-05T11:36:16.560Z,5.60
2019-04-05T11:38:45.959Z,5.70
2019-04-05T11:41:14.925Z,5.70
2019-04-05T11:43:45.960Z,5.60
2019-04-05T11:46:14.910Z,5.50
2019-04-05T11:48:44.069Z,5.80
2019-04-05T11:51:12.669Z,5.70
2019-04-05T11:53:41.116Z,5.70
2019-04-05T11:56:14.885Z,5.70
2019-04-05T11:58:41.429Z,5.70
2019-04-05T12:01:11.544Z,5.70
2019-04-05T12:03:40.191Z,5.70
2019-04-05T12:06:08.647Z,5.70
2019-04-05T12:08:37.114Z,5.60
2019-04-05T12:11:05.642Z,5.60
2019-04-05T12:13:34.102Z,5.60
2019-04-05T12:16:03.727Z,5.60
2019-04-05T12:18:34.823Z,5.60
2019-04-05T12:21:05.716Z,5.70
2019-04-05T12:23:33.601Z,5.70
2019-04-05T12:26:04.686Z,5.60
2019-04-05T12:28:32.381Z,5.70
2019-04-05T12:31:01.163Z,5.70
2019-04-05T12:33:29.609Z,5.70
2019-04-05T12:35:58.084Z,5.80
2019-04-05T12:38:33.429Z,5.80
2019-04-05T12:41:03.788Z,5.80
2019-04-05T12:43:32.979Z,5.80
2019-04-05T12:46:01.891Z,5.80
2019-04-05T12:48:30.435Z,5.70
2019-04-05T12:51:01.240Z,5.70
2019-04-05T12:53:29.147Z,5.80
2019-04-05T12:55:57.660Z,5.70
2019-04-05T12:58:26.762Z,5.70
2019-04-05T13:00:56.327Z,5.70
2019-04-05T13:03:25.466Z,5.80
2019-04-05T13:05:56.960Z,5.70
2019-04-05T13:08:24.189Z,5.70
2019-04-05T13:10:55.383Z,5.70
2019-04-05T13:13:26.435Z,5.70
2019-04-05T13:15:53.115Z,5.90
2019-04-05T13:18:21.594Z,6.00
2019-04-05T13:20:50.079Z,6.00
2019-04-05T13:23:18.536Z,6.00
2019-04-05T13:25:47.419Z,6.00
2019-04-05T13:28:18.759Z,6.00
2019-04-05T13:30:48.112Z,6.00
2019-04-05T13:33:16.541Z,6.00
2019-04-05T13:35:45.349Z,6.00
2019-04-05T13:38:13.793Z,5.90
2019-04-05T13:40:42.295Z,6.00
2019-04-05T13:43:10.750Z,6.10
2019-04-05T13:45:39.353Z,6.10
2019-04-05T13:48:09.038Z,6.20
2019-04-05T13:50:41.450Z,6.20
2019-04-05T13:53:11.138Z,6.10
2019-04-05T13:55:40.766Z,6.10
2019-04-05T13:58:11.366Z,6.20
2019-04-05T14:00:39.783Z,6.20
2019-04-05T14:03:08.581Z,6.10
2019-04-05T14:05:37.345Z,6.10
2019-04-05T14:08:10.476Z,6.10
2019-04-05T14:10:36.033Z,6.10
2019-04-05T14:13:04.700Z,6.20
2019-04-05T14:15:33.445Z,6.20
2019-04-05T14:18:01.891Z,6.20
2019-04-05T14:20:30.710Z,6.10
2019-04-05T14:22:59.156Z,6.10
2019-04-05T14:25:30.091Z,6.10
2019-04-05T14:27:58.104Z,6.00
2019-04-05T14:30:26.565Z,6.00
2019-04-05T14:32:55.806Z,6.10
2019-04-05T14:35:25.223Z,6.10
2019-04-05T14:37:54.525Z,6.10
2019-04-05T14:40:23.837Z,6.10
2019-04-05T14:42:52.325Z,6.10
2019-04-05T14:45:20.847Z,6.10
2019-04-05T14:47:49.335Z,6.00
2019-04-05T14:50:18.017Z,6.20
2019-04-05T14:52:49.351Z,6.20
2019-04-05T14:55:16.735Z,6.30
2019-04-05T14:57:45.228Z,6.30
2019-04-05T15:00:15.087Z,6.20
2019-04-05T15:02:44.386Z,6.20
2019-04-05T15:05:13.108Z,6.20
2019-04-05T15:07:41.567Z,6.20
2019-04-05T15:10:10.584Z,6.20
2019-04-05T15:12:39.033Z,6.30
2019-04-05T15:15:08.454Z,6.20
2019-04-05T15:17:47.168Z,6.20
2019-04-05T15:20:08.416Z,6.10
2019-04-05T15:22:36.952Z,6.10
2019-04-05T15:25:07.257Z,6.20
2019-04-05T15:27:35.749Z,6.20
2019-04-05T15:30:05.757Z,6.20
2019-04-05T15:32:35.493Z,6.20
2019-04-05T15:35:05.445Z,6.20
2019-04-05T15:37:33.932Z,6.20
2019-04-05T15:40:02.407Z,6.20
2019-04-05T15:42:31.415Z,6.20
2019-04-05T15:44:59.875Z,6.20
2019-04-05T15:47:28.339Z,6.20
2019-04-05T15:49:57.151Z,6.20
2019-04-05T15:52:31.168Z,6.10
2019-04-05T15:54:56.135Z,6.30
2019-04-05T15:57:24.591Z,6.30
2019-04-05T15:59:53.085Z,6.40
2019-04-05T16:02:21.552Z,6.40
2019-04-05T16:04:50.398Z,6.30
2019-04-05T16:07:18.995Z,6.40
2019-04-05T16:09:47.475Z,6.50
2019-04-05T16:12:15.930Z,6.40
2019-04-05T16:14:44.407Z,6.50
2019-04-05T16:17:13.035Z,6.30
2019-04-05T16:19:41.569Z,6.40
2019-04-05T16:22:10.369Z,6.30
2019-04-05T16:24:39.174Z,6.20
2019-04-05T16:27:07.639Z,6.30
2019-04-05T16:29:36.132Z,6.30
2019-04-05T16:32:05.029Z,6.20
2019-04-05T16:34:33.478Z,6.20
2019-04-05T16:37:02.287Z,6.10
2019-04-05T16:39:30.752Z,6.40
2019-04-05T16:41:59.295Z,6.60
2019-04-05T16:44:27.746Z,6.60
2019-04-05T16:46:57.955Z,6.70
2019-04-05T16:49:26.502Z,6.70
2019-04-05T16:51:54.992Z,6.60
2019-04-05T16:54:23.446Z,6.30
2019-04-05T16:56:51.944Z,6.20
2019-04-05T16:59:20.479Z,6.20
2019-04-05T17:01:48.953Z,6.10
2019-04-05T17:04:17.754Z,6.10
2019-04-05T17:06:46.387Z,6.00
2019-04-05T17:09:14.842Z,6.10
2019-04-05T17:11:43.304Z,6.00
2019-04-05T17:14:11.799Z,6.30
2019-04-05T17:16:40.277Z,6.20
2019-04-05T17:19:08.804Z,6.10
2019-04-05T17:21:37.355Z,6.10
2019-04-05T17:24:06.222Z,6.00
2019-04-05T17:26:34.701Z,6.00
2019-04-05T17:29:03.162Z,6.00
2019-04-05T17:31:31.652Z,6.00
2019-04-05T17:34:00.191Z,6.00
2019-04-05T17:36:28.661Z,6.10
2019-04-05T17:38:57.127Z,6.00
2019-04-05T17:41:25.664Z,6.00
2019-04-05T17:43:54.127Z,6.00
2019-04-05T17:46:22.610Z,6.10
2019-04-05T17:48:51.928Z,6.20
2019-04-05T17:51:20.699Z,6.20
2019-04-05T17:53:49.167Z,6.30
2019-04-05T17:56:18.235Z,6.20
2019-04-05T17:58:47.542Z,6.40
2019-04-05T18:01:16.020Z,6.40
2019-04-05T18:03:44.487Z,6.30
2019-04-05T18:06:12.968Z,6.20
2019-04-05T18:08:41.423Z,6.10
2019-04-05T18:11:09.901Z,6.10
2019-04-05T18:13:38.396Z,6.00
2019-04-05T18:16:06.874Z,6.00
2019-04-05T18:18:35.359Z,6.10
2019-04-05T18:21:03.879Z,6.00
2019-04-05T18:23:32.362Z,6.00
2019-04-05T18:26:00.823Z,5.90
2019-04-05T18:28:29.284Z,5.90
2019-04-05T18:30:57.764Z,5.80
2019-04-05T18:33:26.213Z,5.80
2019-04-05T18:35:54.675Z,5.80
2019-04-05T18:38:23.169Z,5.80
2019-04-05T18:40:51.915Z,5.80
2019-04-05T18:43:20.376Z,5.90
2019-04-05T18:45:48.873Z,5.90
2019-04-05T18:48:17.673Z,5.90
2019-04-05T18:50:48.416Z,5.80
2019-04-05T18:53:16.357Z,5.90
2019-04-05T18:55:44.845Z,5.90
2019-04-05T18:58:13.659Z,5.90
2019-04-05T19:00:42.183Z,5.80
2019-04-05T19:03:10.671Z,5.80
2019-04-05T19:05:39.196Z,5.80
2019-04-05T19:08:07.885Z,5.80
2019-04-05T19:10:37.480Z,6.00
2019-04-05T19:13:06.469Z,6.00
2019-04-05T19:15:34.944Z,6.00
2019-04-05T19:18:03.491Z,6.00
2019-04-05T19:20:31.966Z,6.00
2019-04-05T19:23:00.438Z,6.20
2019-04-05T19:25:29.062Z,6.10
2019-04-05T19:27:57.563Z,6.10
2019-04-05T19:50:28.042Z,5.90
2019-04-05T19:52:56.525Z,5.70
2019-04-05T19:55:25.000Z,5.70
2019-04-05T19:57:53.473Z,5.60
2019-04-05T20:00:22.374Z,5.70
2019-04-05T20:02:50.917Z,5.70
2019-04-05T20:05:19.393Z,5.90
2019-04-05T20:07:47.858Z,5.80
2019-04-05T20:10:16.610Z,5.70
2019-04-05T20:12:45.070Z,5.60
2019-04-05T20:15:14.223Z,5.60
2019-04-05T20:17:42.778Z,5.90
2019-04-05T20:20:11.930Z,5.70
2019-04-05T20:22:40.415Z,5.50
2019-04-05T20:25:09.030Z,5.50
2019-04-05T20:27:37.517Z,5.40
2019-04-05T20:30:07.615Z,5.40
2019-04-05T20:32:36.133Z,5.30
2019-04-05T20:35:05.455Z,5.10
2019-04-05T20:37:33.924Z,5.10
2019-04-05T20:40:02.475Z,5.00
2019-04-05T20:42:30.921Z,4.90
2019-04-05T20:44:59.428Z,4.90
2019-04-05T20:47:27.888Z,4.80
2019-04-05T20:49:56.347Z,4.70
2019-04-05T20:52:24.826Z,4.70
2019-04-05T20:54:53.281Z,4.70
2019-04-05T20:57:21.785Z,4.80
2019-04-05T20:59:50.235Z,4.80
2019-04-05T21:02:18.686Z,4.90
2019-04-05T21:04:47.157Z,4.80
2019-04-05T21:07:15.619Z,4.80
2019-04-05T21:09:44.154Z,4.80
2019-04-05T21:12:13.063Z,4.50
2019-04-05T21:14:41.523Z,4.40
2019-04-05T21:17:10.004Z,4.50
2019-04-05T21:19:38.534Z,4.50
2019-04-05T21:22:07.036Z,4.50
2019-04-05T21:24:36.475Z,4.30
2019-04-05T21:27:05.119Z,4.10
2019-04-05T21:29:33.595Z,4.20
2019-04-05T21:32:02.053Z,4.40
2019-04-05T21:34:30.517Z,4.40
2019-04-05T21:36:58.995Z,4.40
2019-04-05T21:39:27.484Z,4.30
2019-04-05T21:41:55.943Z,4.20
2019-04-05T21:44:24.404Z,4.10
2019-04-05T21:46:52.896Z,4.10
2019-04-05T21:49:21.360Z,4.20
2019-04-05T21:51:49.821Z,4.00
2019-04-05T21:54:18.269Z,4.00
2019-04-05T21:56:46.749Z,4.10
2019-04-05T21:59:15.211Z,4.20
2019-04-05T22:01:44.023Z,4.40
2019-04-05T22:04:12.496Z,4.40
2019-04-05T22:06:40.979Z,4.50
2019-04-05T22:09:10.467Z,4.40
2019-04-05T22:11:39.021Z,4.40
2019-04-05T22:14:07.533Z,4.30
2019-04-05T22:16:36.017Z,4.20
2019-04-05T22:19:04.709Z,4.10
2019-04-05T22:21:33.209Z,3.80
2019-04-05T22:24:01.676Z,3.80
2019-04-05T22:26:30.170Z,3.60
2019-04-05T22:28:58.626Z,3.80
2019-04-05T22:31:27.094Z,3.90
2019-04-05T22:33:55.647Z,4.00
2019-04-05T22:36:24.135Z,3.90
2019-04-05T22:38:52.690Z,3.80
2019-04-05T22:41:21.399Z,3.80
2019-04-05T22:43:49.870Z,3.50
2019-04-05T22:46:18.344Z,3.50
2019-04-05T22:48:46.834Z,3.40
2019-04-05T22:51:15.367Z,3.40
2019-04-05T22:53:43.829Z,3.40
2019-04-05T22:56:12.677Z,3.50
2019-04-05T22:58:41.153Z,3.40
2019-04-05T23:01:09.712Z,3.50
2019-04-05T23:03:38.188Z,3.50
2019-04-05T23:06:06.653Z,3.50
2019-04-05T23:08:35.132Z,3.50
2019-04-05T23:11:03.971Z,3.50
2019-04-05T23:13:32.760Z,3.50
2019-04-05T23:16:01.763Z,3.50
2019-04-05T23:18:30.236Z,3.60
2019-04-05T23:20:58.739Z,3.60
2019-04-05T23:23:27.378Z,3.40
2019-04-05T23:25:56.097Z,3.20
2019-04-05T23:28:24.572Z,3.10
2019-04-05T23:30:53.049Z,3.10
2019-04-05T23:33:21.515Z,3.30
2019-04-05T23:35:50.043Z,3.50
2019-04-05T23:38:18.527Z,3.60
2019-04-05T23:40:46.986Z,3.60
2019-04-05T23:43:15.470Z,3.70
2019-04-05T23:45:43.990Z,3.60
2019-04-05T23:48:12.471Z,3.60
2019-04-05T23:50:40.934Z,3.50
2019-04-05T23:53:09.425Z,3.50
2019-04-05T23:55:37.897Z,3.50
2019-04-05T23:58:06.380Z,3.50
